<?xml version="1.0" encoding="UTF-8" standalone="no" ?><gpx xmlns="http://www.topografix.com/GPX/1/1" xmlns:gpxx="http://www.garmin.com/xmlschemas/GpxExtensions/v3" xmlns:wptx1="http://www.garmin.com/xmlschemas/WaypointExtension/v1" xmlns:gpxtpx="http://www.garmin.com/xmlschemas/TrackPointExtension/v1" creator="GuideVTT.com" version="1.1" xmlns:xsi="http://www.w3.org/2001/XMLSchema-instance" xsi:schemaLocation="http://www.topografix.com/GPX/1/1 http://www.topografix.com/GPX/1/1/gpx.xsd http://www.garmin.com/xmlschemas/GpxExtensions/v3 http://www8.garmin.com/xmlschemas/GpxExtensionsv3.xsd http://www.garmin.com/xmlschemas/WaypointExtension/v1 http://www8.garmin.com/xmlschemas/WaypointExtensionv1.xsd http://www.garmin.com/xmlschemas/TrackPointExtension/v1 http://www.garmin.com/xmlschemas/TrackPointExtensionv1.xsd">
<metadata><link href="http://www.garmin.com"><text>Garmin International</text></link><time>2013-06-22T15:13:50Z</time></metadata>
<trk><name>rp2016_30.gpx</name><extensions><gpxx:TrackExtension><gpxx:DisplayColor>Cyan</gpxx:DisplayColor></gpxx:TrackExtension></extensions><trkseg>
<trkpt lat="46.20674" lon="7.43963"><ele></ele><time>2017-1-18T3:35:23Z</time></trkpt>
<trkpt lat="46.20674" lon="7.43962"><ele></ele><time>2017-1-18T3:35:26Z</time></trkpt>
<trkpt lat="46.20675" lon="7.43966"><ele></ele><time>2017-1-18T3:35:29Z</time></trkpt>
<trkpt lat="46.20675" lon="7.43968"><ele></ele><time>2017-1-18T3:35:32Z</time></trkpt>
<trkpt lat="46.20675" lon="7.43968"><ele></ele><time>2017-1-18T3:35:35Z</time></trkpt>
<trkpt lat="46.20674" lon="7.43967"><ele></ele><time>2017-1-18T3:35:38Z</time></trkpt>
<trkpt lat="46.20673" lon="7.43968"><ele></ele><time>2017-1-18T3:35:41Z</time></trkpt>
<trkpt lat="46.20672" lon="7.43967"><ele></ele><time>2017-1-18T3:35:44Z</time></trkpt>
<trkpt lat="46.20672" lon="7.43967"><ele></ele><time>2017-1-18T3:35:47Z</time></trkpt>
<trkpt lat="46.20675" lon="7.43972"><ele></ele><time>2017-1-18T3:35:50Z</time></trkpt>
<trkpt lat="46.20677" lon="7.43975"><ele></ele><time>2017-1-18T3:35:53Z</time></trkpt>
<trkpt lat="46.2068" lon="7.43977"><ele></ele><time>2017-1-18T3:35:56Z</time></trkpt>
<trkpt lat="46.20682" lon="7.43977"><ele></ele><time>2017-1-18T3:35:59Z</time></trkpt>
<trkpt lat="46.20693" lon="7.43977"><ele></ele><time>2017-1-18T3:36:2Z</time></trkpt>
<trkpt lat="46.20713" lon="7.43968"><ele></ele><time>2017-1-18T3:36:5Z</time></trkpt>
<trkpt lat="46.20725" lon="7.43961"><ele></ele><time>2017-1-18T3:36:8Z</time></trkpt>
<trkpt lat="46.20741" lon="7.43946"><ele></ele><time>2017-1-18T3:36:11Z</time></trkpt>
<trkpt lat="46.2076" lon="7.43935"><ele></ele><time>2017-1-18T3:36:14Z</time></trkpt>
<trkpt lat="46.20768" lon="7.43932"><ele></ele><time>2017-1-18T3:36:17Z</time></trkpt>
<trkpt lat="46.20787" lon="7.43939"><ele></ele><time>2017-1-18T3:36:20Z</time></trkpt>
<trkpt lat="46.20805" lon="7.43944"><ele></ele><time>2017-1-18T3:36:23Z</time></trkpt>
<trkpt lat="46.20815" lon="7.43947"><ele></ele><time>2017-1-18T3:36:26Z</time></trkpt>
<trkpt lat="46.20824" lon="7.4395"><ele></ele><time>2017-1-18T3:36:29Z</time></trkpt>
<trkpt lat="46.20829" lon="7.4395"><ele></ele><time>2017-1-18T3:36:32Z</time></trkpt>
<trkpt lat="46.20848" lon="7.43949"><ele></ele><time>2017-1-18T3:36:35Z</time></trkpt>
<trkpt lat="46.20857" lon="7.43951"><ele></ele><time>2017-1-18T3:36:38Z</time></trkpt>
<trkpt lat="46.20867" lon="7.43952"><ele></ele><time>2017-1-18T3:36:41Z</time></trkpt>
<trkpt lat="46.20872" lon="7.43952"><ele></ele><time>2017-1-18T3:36:44Z</time></trkpt>
<trkpt lat="46.2089" lon="7.43947"><ele></ele><time>2017-1-18T3:36:47Z</time></trkpt>
<trkpt lat="46.20912" lon="7.43937"><ele></ele><time>2017-1-18T3:36:50Z</time></trkpt>
<trkpt lat="46.20918" lon="7.43936"><ele></ele><time>2017-1-18T3:36:53Z</time></trkpt>
<trkpt lat="46.20939" lon="7.43934"><ele></ele><time>2017-1-18T3:36:56Z</time></trkpt>
<trkpt lat="46.20961" lon="7.43933"><ele></ele><time>2017-1-18T3:36:59Z</time></trkpt>
<trkpt lat="46.20977" lon="7.43925"><ele></ele><time>2017-1-18T3:37:2Z</time></trkpt>
<trkpt lat="46.20991" lon="7.4391"><ele></ele><time>2017-1-18T3:37:5Z</time></trkpt>
<trkpt lat="46.21007" lon="7.43894"><ele></ele><time>2017-1-18T3:37:8Z</time></trkpt>
<trkpt lat="46.21023" lon="7.43879"><ele></ele><time>2017-1-18T3:37:11Z</time></trkpt>
<trkpt lat="46.2104" lon="7.43861"><ele></ele><time>2017-1-18T3:37:14Z</time></trkpt>
<trkpt lat="46.21056" lon="7.43844"><ele></ele><time>2017-1-18T3:37:17Z</time></trkpt>
<trkpt lat="46.2107" lon="7.43827"><ele></ele><time>2017-1-18T3:37:20Z</time></trkpt>
<trkpt lat="46.21089" lon="7.43811"><ele></ele><time>2017-1-18T3:37:23Z</time></trkpt>
<trkpt lat="46.21094" lon="7.43807"><ele></ele><time>2017-1-18T3:37:26Z</time></trkpt>
<trkpt lat="46.21106" lon="7.43784"><ele></ele><time>2017-1-18T3:37:29Z</time></trkpt>
<trkpt lat="46.21116" lon="7.43778"><ele></ele><time>2017-1-18T3:37:32Z</time></trkpt>
<trkpt lat="46.2113" lon="7.4377"><ele></ele><time>2017-1-18T3:37:35Z</time></trkpt>
<trkpt lat="46.21146" lon="7.43758"><ele></ele><time>2017-1-18T3:37:38Z</time></trkpt>
<trkpt lat="46.21151" lon="7.43755"><ele></ele><time>2017-1-18T3:37:41Z</time></trkpt>
<trkpt lat="46.2116" lon="7.43751"><ele></ele><time>2017-1-18T3:37:44Z</time></trkpt>
<trkpt lat="46.21168" lon="7.43748"><ele></ele><time>2017-1-18T3:37:47Z</time></trkpt>
<trkpt lat="46.21186" lon="7.43742"><ele></ele><time>2017-1-18T3:37:50Z</time></trkpt>
<trkpt lat="46.21204" lon="7.4373"><ele></ele><time>2017-1-18T3:37:53Z</time></trkpt>
<trkpt lat="46.21215" lon="7.43718"><ele></ele><time>2017-1-18T3:37:56Z</time></trkpt>
<trkpt lat="46.21217" lon="7.43717"><ele></ele><time>2017-1-18T3:37:59Z</time></trkpt>
<trkpt lat="46.21224" lon="7.4371"><ele></ele><time>2017-1-18T3:38:2Z</time></trkpt>
<trkpt lat="46.21228" lon="7.43705"><ele></ele><time>2017-1-18T3:38:5Z</time></trkpt>
<trkpt lat="46.21231" lon="7.43702"><ele></ele><time>2017-1-18T3:38:8Z</time></trkpt>
<trkpt lat="46.21247" lon="7.43687"><ele></ele><time>2017-1-18T3:38:11Z</time></trkpt>
<trkpt lat="46.21254" lon="7.43679"><ele></ele><time>2017-1-18T3:38:14Z</time></trkpt>
<trkpt lat="46.2126" lon="7.43673"><ele></ele><time>2017-1-18T3:38:17Z</time></trkpt>
<trkpt lat="46.21276" lon="7.43659"><ele></ele><time>2017-1-18T3:38:20Z</time></trkpt>
<trkpt lat="46.21283" lon="7.43652"><ele></ele><time>2017-1-18T3:38:23Z</time></trkpt>
<trkpt lat="46.21284" lon="7.4365"><ele></ele><time>2017-1-18T3:38:26Z</time></trkpt>
<trkpt lat="46.21299" lon="7.43635"><ele></ele><time>2017-1-18T3:38:29Z</time></trkpt>
<trkpt lat="46.21316" lon="7.43629"><ele></ele><time>2017-1-18T3:38:32Z</time></trkpt>
<trkpt lat="46.21319" lon="7.43652"><ele></ele><time>2017-1-18T3:38:35Z</time></trkpt>
<trkpt lat="46.21302" lon="7.43669"><ele></ele><time>2017-1-18T3:38:38Z</time></trkpt>
<trkpt lat="46.21295" lon="7.43677"><ele></ele><time>2017-1-18T3:38:41Z</time></trkpt>
<trkpt lat="46.21283" lon="7.43696"><ele></ele><time>2017-1-18T3:38:44Z</time></trkpt>
<trkpt lat="46.21273" lon="7.43718"><ele></ele><time>2017-1-18T3:38:47Z</time></trkpt>
<trkpt lat="46.21263" lon="7.4374"><ele></ele><time>2017-1-18T3:38:50Z</time></trkpt>
<trkpt lat="46.21253" lon="7.43762"><ele></ele><time>2017-1-18T3:38:53Z</time></trkpt>
<trkpt lat="46.21243" lon="7.4378"><ele></ele><time>2017-1-18T3:38:56Z</time></trkpt>
<trkpt lat="46.21228" lon="7.43798"><ele></ele><time>2017-1-18T3:38:59Z</time></trkpt>
<trkpt lat="46.21208" lon="7.43822"><ele></ele><time>2017-1-18T3:39:2Z</time></trkpt>
<trkpt lat="46.21202" lon="7.43834"><ele></ele><time>2017-1-18T3:39:5Z</time></trkpt>
<trkpt lat="46.21201" lon="7.43837"><ele></ele><time>2017-1-18T3:39:8Z</time></trkpt>
<trkpt lat="46.212" lon="7.43839"><ele></ele><time>2017-1-18T3:39:11Z</time></trkpt>
<trkpt lat="46.21198" lon="7.43841"><ele></ele><time>2017-1-18T3:39:14Z</time></trkpt>
<trkpt lat="46.21191" lon="7.43856"><ele></ele><time>2017-1-18T3:39:17Z</time></trkpt>
<trkpt lat="46.2118" lon="7.43879"><ele></ele><time>2017-1-18T3:39:20Z</time></trkpt>
<trkpt lat="46.21174" lon="7.43891"><ele></ele><time>2017-1-18T3:39:23Z</time></trkpt>
<trkpt lat="46.21173" lon="7.43893"><ele></ele><time>2017-1-18T3:39:26Z</time></trkpt>
<trkpt lat="46.21168" lon="7.43903"><ele></ele><time>2017-1-18T3:39:29Z</time></trkpt>
<trkpt lat="46.21164" lon="7.43909"><ele></ele><time>2017-1-18T3:39:32Z</time></trkpt>
<trkpt lat="46.21152" lon="7.43929"><ele></ele><time>2017-1-18T3:39:35Z</time></trkpt>
<trkpt lat="46.21137" lon="7.43945"><ele></ele><time>2017-1-18T3:39:38Z</time></trkpt>
<trkpt lat="46.21128" lon="7.43952"><ele></ele><time>2017-1-18T3:39:41Z</time></trkpt>
<trkpt lat="46.21126" lon="7.43954"><ele></ele><time>2017-1-18T3:39:44Z</time></trkpt>
<trkpt lat="46.21115" lon="7.43963"><ele></ele><time>2017-1-18T3:39:47Z</time></trkpt>
<trkpt lat="46.21096" lon="7.43986"><ele></ele><time>2017-1-18T3:39:50Z</time></trkpt>
<trkpt lat="46.21084" lon="7.44001"><ele></ele><time>2017-1-18T3:39:53Z</time></trkpt>
<trkpt lat="46.21076" lon="7.44011"><ele></ele><time>2017-1-18T3:39:56Z</time></trkpt>
<trkpt lat="46.21063" lon="7.44028"><ele></ele><time>2017-1-18T3:39:59Z</time></trkpt>
<trkpt lat="46.21048" lon="7.44045"><ele></ele><time>2017-1-18T3:40:2Z</time></trkpt>
<trkpt lat="46.21033" lon="7.44062"><ele></ele><time>2017-1-18T3:40:5Z</time></trkpt>
<trkpt lat="46.21017" lon="7.44078"><ele></ele><time>2017-1-18T3:40:8Z</time></trkpt>
<trkpt lat="46.21001" lon="7.44094"><ele></ele><time>2017-1-18T3:40:11Z</time></trkpt>
<trkpt lat="46.20983" lon="7.44107"><ele></ele><time>2017-1-18T3:40:14Z</time></trkpt>
<trkpt lat="46.20966" lon="7.44116"><ele></ele><time>2017-1-18T3:40:17Z</time></trkpt>
<trkpt lat="46.20939" lon="7.44124"><ele></ele><time>2017-1-18T3:40:20Z</time></trkpt>
<trkpt lat="46.20919" lon="7.44126"><ele></ele><time>2017-1-18T3:40:23Z</time></trkpt>
<trkpt lat="46.209" lon="7.44129"><ele></ele><time>2017-1-18T3:40:26Z</time></trkpt>
<trkpt lat="46.20881" lon="7.44134"><ele></ele><time>2017-1-18T3:40:29Z</time></trkpt>
<trkpt lat="46.20865" lon="7.44139"><ele></ele><time>2017-1-18T3:40:32Z</time></trkpt>
<trkpt lat="46.20846" lon="7.44145"><ele></ele><time>2017-1-18T3:40:35Z</time></trkpt>
<trkpt lat="46.20829" lon="7.4415"><ele></ele><time>2017-1-18T3:40:38Z</time></trkpt>
<trkpt lat="46.20811" lon="7.44155"><ele></ele><time>2017-1-18T3:40:41Z</time></trkpt>
<trkpt lat="46.20799" lon="7.44157"><ele></ele><time>2017-1-18T3:40:44Z</time></trkpt>
<trkpt lat="46.20782" lon="7.44164"><ele></ele><time>2017-1-18T3:40:47Z</time></trkpt>
<trkpt lat="46.20755" lon="7.44165"><ele></ele><time>2017-1-18T3:40:50Z</time></trkpt>
<trkpt lat="46.20736" lon="7.4416"><ele></ele><time>2017-1-18T3:40:53Z</time></trkpt>
<trkpt lat="46.20718" lon="7.44151"><ele></ele><time>2017-1-18T3:40:56Z</time></trkpt>
<trkpt lat="46.20699" lon="7.4414"><ele></ele><time>2017-1-18T3:40:59Z</time></trkpt>
<trkpt lat="46.20683" lon="7.44127"><ele></ele><time>2017-1-18T3:41:2Z</time></trkpt>
<trkpt lat="46.20666" lon="7.44113"><ele></ele><time>2017-1-18T3:41:5Z</time></trkpt>
<trkpt lat="46.20651" lon="7.44099"><ele></ele><time>2017-1-18T3:41:8Z</time></trkpt>
<trkpt lat="46.20635" lon="7.44086"><ele></ele><time>2017-1-18T3:41:11Z</time></trkpt>
<trkpt lat="46.20621" lon="7.4407"><ele></ele><time>2017-1-18T3:41:14Z</time></trkpt>
<trkpt lat="46.20596" lon="7.44054"><ele></ele><time>2017-1-18T3:41:17Z</time></trkpt>
<trkpt lat="46.20579" lon="7.44043"><ele></ele><time>2017-1-18T3:41:20Z</time></trkpt>
<trkpt lat="46.20561" lon="7.44033"><ele></ele><time>2017-1-18T3:41:23Z</time></trkpt>
<trkpt lat="46.20543" lon="7.44022"><ele></ele><time>2017-1-18T3:41:26Z</time></trkpt>
<trkpt lat="46.20536" lon="7.44017"><ele></ele><time>2017-1-18T3:41:29Z</time></trkpt>
<trkpt lat="46.20519" lon="7.44005"><ele></ele><time>2017-1-18T3:41:32Z</time></trkpt>
<trkpt lat="46.20502" lon="7.43994"><ele></ele><time>2017-1-18T3:41:35Z</time></trkpt>
<trkpt lat="46.20483" lon="7.43985"><ele></ele><time>2017-1-18T3:41:38Z</time></trkpt>
<trkpt lat="46.20475" lon="7.4398"><ele></ele><time>2017-1-18T3:41:41Z</time></trkpt>
<trkpt lat="46.20459" lon="7.43965"><ele></ele><time>2017-1-18T3:41:44Z</time></trkpt>
<trkpt lat="46.20443" lon="7.43969"><ele></ele><time>2017-1-18T3:41:47Z</time></trkpt>
<trkpt lat="46.2045" lon="7.43984"><ele></ele><time>2017-1-18T3:41:50Z</time></trkpt>
<trkpt lat="46.20465" lon="7.43998"><ele></ele><time>2017-1-18T3:41:53Z</time></trkpt>
<trkpt lat="46.2048" lon="7.44013"><ele></ele><time>2017-1-18T3:41:56Z</time></trkpt>
<trkpt lat="46.20496" lon="7.44029"><ele></ele><time>2017-1-18T3:41:59Z</time></trkpt>
<trkpt lat="46.20499" lon="7.44031"><ele></ele><time>2017-1-18T3:42:2Z</time></trkpt>
<trkpt lat="46.20506" lon="7.44039"><ele></ele><time>2017-1-18T3:42:5Z</time></trkpt>
<trkpt lat="46.20522" lon="7.44057"><ele></ele><time>2017-1-18T3:42:8Z</time></trkpt>
<trkpt lat="46.20538" lon="7.44075"><ele></ele><time>2017-1-18T3:42:11Z</time></trkpt>
<trkpt lat="46.20552" lon="7.44093"><ele></ele><time>2017-1-18T3:42:14Z</time></trkpt>
<trkpt lat="46.20554" lon="7.44096"><ele></ele><time>2017-1-18T3:42:17Z</time></trkpt>
<trkpt lat="46.20564" lon="7.44116"><ele></ele><time>2017-1-18T3:42:20Z</time></trkpt>
<trkpt lat="46.20571" lon="7.4414"><ele></ele><time>2017-1-18T3:42:23Z</time></trkpt>
<trkpt lat="46.20578" lon="7.44166"><ele></ele><time>2017-1-18T3:42:26Z</time></trkpt>
<trkpt lat="46.20581" lon="7.44193"><ele></ele><time>2017-1-18T3:42:29Z</time></trkpt>
<trkpt lat="46.20583" lon="7.44212"><ele></ele><time>2017-1-18T3:42:32Z</time></trkpt>
<trkpt lat="46.20588" lon="7.44242"><ele></ele><time>2017-1-18T3:42:35Z</time></trkpt>
<trkpt lat="46.20592" lon="7.44268"><ele></ele><time>2017-1-18T3:42:38Z</time></trkpt>
<trkpt lat="46.206" lon="7.44292"><ele></ele><time>2017-1-18T3:42:41Z</time></trkpt>
<trkpt lat="46.20611" lon="7.44313"><ele></ele><time>2017-1-18T3:42:44Z</time></trkpt>
<trkpt lat="46.20623" lon="7.44334"><ele></ele><time>2017-1-18T3:42:47Z</time></trkpt>
<trkpt lat="46.2064" lon="7.44345"><ele></ele><time>2017-1-18T3:42:50Z</time></trkpt>
<trkpt lat="46.20657" lon="7.44353"><ele></ele><time>2017-1-18T3:42:53Z</time></trkpt>
<trkpt lat="46.20671" lon="7.44366"><ele></ele><time>2017-1-18T3:42:56Z</time></trkpt>
<trkpt lat="46.20686" lon="7.44382"><ele></ele><time>2017-1-18T3:42:59Z</time></trkpt>
<trkpt lat="46.207" lon="7.44401"><ele></ele><time>2017-1-18T3:43:2Z</time></trkpt>
<trkpt lat="46.20713" lon="7.44421"><ele></ele><time>2017-1-18T3:43:5Z</time></trkpt>
<trkpt lat="46.20724" lon="7.44441"><ele></ele><time>2017-1-18T3:43:8Z</time></trkpt>
<trkpt lat="46.20734" lon="7.44463"><ele></ele><time>2017-1-18T3:43:11Z</time></trkpt>
<trkpt lat="46.20735" lon="7.44479"><ele></ele><time>2017-1-18T3:43:14Z</time></trkpt>
<trkpt lat="46.20714" lon="7.44462"><ele></ele><time>2017-1-18T3:43:17Z</time></trkpt>
<trkpt lat="46.20697" lon="7.4445"><ele></ele><time>2017-1-18T3:43:20Z</time></trkpt>
<trkpt lat="46.20679" lon="7.44444"><ele></ele><time>2017-1-18T3:43:23Z</time></trkpt>
<trkpt lat="46.20661" lon="7.44444"><ele></ele><time>2017-1-18T3:43:26Z</time></trkpt>
<trkpt lat="46.20649" lon="7.44443"><ele></ele><time>2017-1-18T3:43:29Z</time></trkpt>
<trkpt lat="46.2063" lon="7.44445"><ele></ele><time>2017-1-18T3:43:32Z</time></trkpt>
<trkpt lat="46.20611" lon="7.44449"><ele></ele><time>2017-1-18T3:43:35Z</time></trkpt>
<trkpt lat="46.20593" lon="7.44453"><ele></ele><time>2017-1-18T3:43:38Z</time></trkpt>
<trkpt lat="46.20583" lon="7.44454"><ele></ele><time>2017-1-18T3:43:41Z</time></trkpt>
<trkpt lat="46.20565" lon="7.44458"><ele></ele><time>2017-1-18T3:43:44Z</time></trkpt>
<trkpt lat="46.20546" lon="7.44461"><ele></ele><time>2017-1-18T3:43:47Z</time></trkpt>
<trkpt lat="46.20542" lon="7.44461"><ele></ele><time>2017-1-18T3:43:50Z</time></trkpt>
<trkpt lat="46.20523" lon="7.44461"><ele></ele><time>2017-1-18T3:43:53Z</time></trkpt>
<trkpt lat="46.20506" lon="7.44448"><ele></ele><time>2017-1-18T3:43:56Z</time></trkpt>
<trkpt lat="46.20496" lon="7.44442"><ele></ele><time>2017-1-18T3:43:59Z</time></trkpt>
<trkpt lat="46.2048" lon="7.4443"><ele></ele><time>2017-1-18T3:44:2Z</time></trkpt>
<trkpt lat="46.20459" lon="7.44427"><ele></ele><time>2017-1-18T3:44:5Z</time></trkpt>
<trkpt lat="46.20451" lon="7.4442"><ele></ele><time>2017-1-18T3:44:8Z</time></trkpt>
<trkpt lat="46.20438" lon="7.44403"><ele></ele><time>2017-1-18T3:44:11Z</time></trkpt>
<trkpt lat="46.20427" lon="7.44382"><ele></ele><time>2017-1-18T3:44:14Z</time></trkpt>
<trkpt lat="46.20418" lon="7.44365"><ele></ele><time>2017-1-18T3:44:17Z</time></trkpt>
<trkpt lat="46.20406" lon="7.44346"><ele></ele><time>2017-1-18T3:44:20Z</time></trkpt>
<trkpt lat="46.20392" lon="7.44326"><ele></ele><time>2017-1-18T3:44:23Z</time></trkpt>
<trkpt lat="46.20376" lon="7.44312"><ele></ele><time>2017-1-18T3:44:26Z</time></trkpt>
<trkpt lat="46.20358" lon="7.44304"><ele></ele><time>2017-1-18T3:44:29Z</time></trkpt>
<trkpt lat="46.20341" lon="7.44282"><ele></ele><time>2017-1-18T3:44:32Z</time></trkpt>
<trkpt lat="46.20327" lon="7.44264"><ele></ele><time>2017-1-18T3:44:35Z</time></trkpt>
<trkpt lat="46.20319" lon="7.44259"><ele></ele><time>2017-1-18T3:44:38Z</time></trkpt>
<trkpt lat="46.20302" lon="7.44247"><ele></ele><time>2017-1-18T3:44:41Z</time></trkpt>
<trkpt lat="46.20286" lon="7.4423"><ele></ele><time>2017-1-18T3:44:44Z</time></trkpt>
<trkpt lat="46.20285" lon="7.44229"><ele></ele><time>2017-1-18T3:44:47Z</time></trkpt>
<trkpt lat="46.2027" lon="7.44214"><ele></ele><time>2017-1-18T3:44:50Z</time></trkpt>
<trkpt lat="46.20252" lon="7.44207"><ele></ele><time>2017-1-18T3:44:53Z</time></trkpt>
<trkpt lat="46.20248" lon="7.44209"><ele></ele><time>2017-1-18T3:44:56Z</time></trkpt>
<trkpt lat="46.20231" lon="7.44231"><ele></ele><time>2017-1-18T3:44:59Z</time></trkpt>
<trkpt lat="46.20223" lon="7.44237"><ele></ele><time>2017-1-18T3:45:2Z</time></trkpt>
<trkpt lat="46.20204" lon="7.44239"><ele></ele><time>2017-1-18T3:45:5Z</time></trkpt>
<trkpt lat="46.20186" lon="7.44242"><ele></ele><time>2017-1-18T3:45:8Z</time></trkpt>
<trkpt lat="46.20185" lon="7.44243"><ele></ele><time>2017-1-18T3:45:11Z</time></trkpt>
<trkpt lat="46.20169" lon="7.44256"><ele></ele><time>2017-1-18T3:45:14Z</time></trkpt>
<trkpt lat="46.20167" lon="7.44259"><ele></ele><time>2017-1-18T3:45:17Z</time></trkpt>
<trkpt lat="46.20159" lon="7.44273"><ele></ele><time>2017-1-18T3:45:20Z</time></trkpt>
<trkpt lat="46.20153" lon="7.44286"><ele></ele><time>2017-1-18T3:45:23Z</time></trkpt>
<trkpt lat="46.20152" lon="7.44289"><ele></ele><time>2017-1-18T3:45:26Z</time></trkpt>
<trkpt lat="46.20151" lon="7.44291"><ele></ele><time>2017-1-18T3:45:29Z</time></trkpt>
<trkpt lat="46.20144" lon="7.44308"><ele></ele><time>2017-1-18T3:45:32Z</time></trkpt>
<trkpt lat="46.20142" lon="7.44311"><ele></ele><time>2017-1-18T3:45:35Z</time></trkpt>
<trkpt lat="46.20132" lon="7.44335"><ele></ele><time>2017-1-18T3:45:38Z</time></trkpt>
<trkpt lat="46.20126" lon="7.44349"><ele></ele><time>2017-1-18T3:45:41Z</time></trkpt>
<trkpt lat="46.20119" lon="7.4436"><ele></ele><time>2017-1-18T3:45:44Z</time></trkpt>
<trkpt lat="46.20117" lon="7.44368"><ele></ele><time>2017-1-18T3:45:47Z</time></trkpt>
<trkpt lat="46.20109" lon="7.44398"><ele></ele><time>2017-1-18T3:45:50Z</time></trkpt>
<trkpt lat="46.20109" lon="7.44412"><ele></ele><time>2017-1-18T3:45:53Z</time></trkpt>
<trkpt lat="46.20109" lon="7.44426"><ele></ele><time>2017-1-18T3:45:56Z</time></trkpt>
<trkpt lat="46.20106" lon="7.44451"><ele></ele><time>2017-1-18T3:45:59Z</time></trkpt>
<trkpt lat="46.20093" lon="7.44471"><ele></ele><time>2017-1-18T3:46:2Z</time></trkpt>
<trkpt lat="46.20091" lon="7.44473"><ele></ele><time>2017-1-18T3:46:5Z</time></trkpt>
<trkpt lat="46.20076" lon="7.44486"><ele></ele><time>2017-1-18T3:46:8Z</time></trkpt>
<trkpt lat="46.20064" lon="7.44507"><ele></ele><time>2017-1-18T3:46:11Z</time></trkpt>
<trkpt lat="46.20054" lon="7.4453"><ele></ele><time>2017-1-18T3:46:14Z</time></trkpt>
<trkpt lat="46.20049" lon="7.44546"><ele></ele><time>2017-1-18T3:46:17Z</time></trkpt>
<trkpt lat="46.20042" lon="7.44569"><ele></ele><time>2017-1-18T3:46:20Z</time></trkpt>
<trkpt lat="46.20037" lon="7.44588"><ele></ele><time>2017-1-18T3:46:23Z</time></trkpt>
<trkpt lat="46.20037" lon="7.44614"><ele></ele><time>2017-1-18T3:46:26Z</time></trkpt>
<trkpt lat="46.20036" lon="7.44626"><ele></ele><time>2017-1-18T3:46:29Z</time></trkpt>
<trkpt lat="46.20035" lon="7.44647"><ele></ele><time>2017-1-18T3:46:32Z</time></trkpt>
<trkpt lat="46.20033" lon="7.44672"><ele></ele><time>2017-1-18T3:46:35Z</time></trkpt>
<trkpt lat="46.20028" lon="7.44694"><ele></ele><time>2017-1-18T3:46:38Z</time></trkpt>
<trkpt lat="46.20021" lon="7.44718"><ele></ele><time>2017-1-18T3:46:41Z</time></trkpt>
<trkpt lat="46.20012" lon="7.44742"><ele></ele><time>2017-1-18T3:46:44Z</time></trkpt>
<trkpt lat="46.20009" lon="7.44752"><ele></ele><time>2017-1-18T3:46:47Z</time></trkpt>
<trkpt lat="46.20006" lon="7.44762"><ele></ele><time>2017-1-18T3:46:50Z</time></trkpt>
<trkpt lat="46.20003" lon="7.44779"><ele></ele><time>2017-1-18T3:46:53Z</time></trkpt>
<trkpt lat="46.20005" lon="7.44805"><ele></ele><time>2017-1-18T3:46:56Z</time></trkpt>
<trkpt lat="46.20012" lon="7.44818"><ele></ele><time>2017-1-18T3:46:59Z</time></trkpt>
<trkpt lat="46.20019" lon="7.44836"><ele></ele><time>2017-1-18T3:47:2Z</time></trkpt>
<trkpt lat="46.20024" lon="7.4487"><ele></ele><time>2017-1-18T3:47:5Z</time></trkpt>
<trkpt lat="46.20028" lon="7.44896"><ele></ele><time>2017-1-18T3:47:8Z</time></trkpt>
<trkpt lat="46.20023" lon="7.44922"><ele></ele><time>2017-1-18T3:47:11Z</time></trkpt>
<trkpt lat="46.20021" lon="7.44933"><ele></ele><time>2017-1-18T3:47:14Z</time></trkpt>
<trkpt lat="46.20013" lon="7.44957"><ele></ele><time>2017-1-18T3:47:17Z</time></trkpt>
<trkpt lat="46.2001" lon="7.44963"><ele></ele><time>2017-1-18T3:47:20Z</time></trkpt>
<trkpt lat="46.20007" lon="7.44969"><ele></ele><time>2017-1-18T3:47:23Z</time></trkpt>
<trkpt lat="46.20003" lon="7.44985"><ele></ele><time>2017-1-18T3:47:26Z</time></trkpt>
<trkpt lat="46.20006" lon="7.44986"><ele></ele><time>2017-1-18T3:47:29Z</time></trkpt>
<trkpt lat="46.20018" lon="7.44977"><ele></ele><time>2017-1-18T3:47:32Z</time></trkpt>
<trkpt lat="46.20024" lon="7.44964"><ele></ele><time>2017-1-18T3:47:35Z</time></trkpt>
<trkpt lat="46.20029" lon="7.44955"><ele></ele><time>2017-1-18T3:47:38Z</time></trkpt>
<trkpt lat="46.20043" lon="7.44936"><ele></ele><time>2017-1-18T3:47:41Z</time></trkpt>
<trkpt lat="46.20055" lon="7.44915"><ele></ele><time>2017-1-18T3:47:44Z</time></trkpt>
<trkpt lat="46.20063" lon="7.44895"><ele></ele><time>2017-1-18T3:47:47Z</time></trkpt>
<trkpt lat="46.20068" lon="7.44887"><ele></ele><time>2017-1-18T3:47:50Z</time></trkpt>
<trkpt lat="46.2008" lon="7.44866"><ele></ele><time>2017-1-18T3:47:53Z</time></trkpt>
<trkpt lat="46.20081" lon="7.44864"><ele></ele><time>2017-1-18T3:47:56Z</time></trkpt>
<trkpt lat="46.20085" lon="7.44846"><ele></ele><time>2017-1-18T3:47:59Z</time></trkpt>
<trkpt lat="46.2009" lon="7.44819"><ele></ele><time>2017-1-18T3:48:2Z</time></trkpt>
<trkpt lat="46.20099" lon="7.44802"><ele></ele><time>2017-1-18T3:48:5Z</time></trkpt>
<trkpt lat="46.20116" lon="7.44797"><ele></ele><time>2017-1-18T3:48:8Z</time></trkpt>
<trkpt lat="46.20136" lon="7.44794"><ele></ele><time>2017-1-18T3:48:11Z</time></trkpt>
<trkpt lat="46.20152" lon="7.44782"><ele></ele><time>2017-1-18T3:48:14Z</time></trkpt>
<trkpt lat="46.20159" lon="7.44777"><ele></ele><time>2017-1-18T3:48:17Z</time></trkpt>
<trkpt lat="46.20166" lon="7.44773"><ele></ele><time>2017-1-18T3:48:20Z</time></trkpt>
<trkpt lat="46.20178" lon="7.44769"><ele></ele><time>2017-1-18T3:48:23Z</time></trkpt>
<trkpt lat="46.2019" lon="7.44761"><ele></ele><time>2017-1-18T3:48:26Z</time></trkpt>
<trkpt lat="46.20207" lon="7.4475"><ele></ele><time>2017-1-18T3:48:29Z</time></trkpt>
<trkpt lat="46.20215" lon="7.44746"><ele></ele><time>2017-1-18T3:48:32Z</time></trkpt>
<trkpt lat="46.20233" lon="7.44743"><ele></ele><time>2017-1-18T3:48:35Z</time></trkpt>
<trkpt lat="46.20251" lon="7.44745"><ele></ele><time>2017-1-18T3:48:38Z</time></trkpt>
<trkpt lat="46.20266" lon="7.44753"><ele></ele><time>2017-1-18T3:48:41Z</time></trkpt>
<trkpt lat="46.20284" lon="7.4476"><ele></ele><time>2017-1-18T3:48:44Z</time></trkpt>
<trkpt lat="46.20294" lon="7.44764"><ele></ele><time>2017-1-18T3:48:47Z</time></trkpt>
<trkpt lat="46.20303" lon="7.44769"><ele></ele><time>2017-1-18T3:48:50Z</time></trkpt>
<trkpt lat="46.20317" lon="7.44783"><ele></ele><time>2017-1-18T3:48:53Z</time></trkpt>
<trkpt lat="46.20331" lon="7.44803"><ele></ele><time>2017-1-18T3:48:56Z</time></trkpt>
<trkpt lat="46.20337" lon="7.44811"><ele></ele><time>2017-1-18T3:48:59Z</time></trkpt>
<trkpt lat="46.20351" lon="7.44822"><ele></ele><time>2017-1-18T3:49:2Z</time></trkpt>
<trkpt lat="46.2036" lon="7.44837"><ele></ele><time>2017-1-18T3:49:5Z</time></trkpt>
<trkpt lat="46.20349" lon="7.44842"><ele></ele><time>2017-1-18T3:49:8Z</time></trkpt>
<trkpt lat="46.20346" lon="7.4484"><ele></ele><time>2017-1-18T3:49:11Z</time></trkpt>
<trkpt lat="46.20329" lon="7.44827"><ele></ele><time>2017-1-18T3:49:14Z</time></trkpt>
<trkpt lat="46.20306" lon="7.44816"><ele></ele><time>2017-1-18T3:49:17Z</time></trkpt>
<trkpt lat="46.20287" lon="7.44814"><ele></ele><time>2017-1-18T3:49:20Z</time></trkpt>
<trkpt lat="46.20269" lon="7.44816"><ele></ele><time>2017-1-18T3:49:23Z</time></trkpt>
<trkpt lat="46.20249" lon="7.44817"><ele></ele><time>2017-1-18T3:49:26Z</time></trkpt>
<trkpt lat="46.20235" lon="7.44833"><ele></ele><time>2017-1-18T3:49:29Z</time></trkpt>
<trkpt lat="46.20224" lon="7.44846"><ele></ele><time>2017-1-18T3:49:32Z</time></trkpt>
<trkpt lat="46.20207" lon="7.44858"><ele></ele><time>2017-1-18T3:49:35Z</time></trkpt>
<trkpt lat="46.20199" lon="7.44865"><ele></ele><time>2017-1-18T3:49:38Z</time></trkpt>
<trkpt lat="46.20185" lon="7.44884"><ele></ele><time>2017-1-18T3:49:41Z</time></trkpt>
<trkpt lat="46.20184" lon="7.44885"><ele></ele><time>2017-1-18T3:49:44Z</time></trkpt>
<trkpt lat="46.20178" lon="7.44899"><ele></ele><time>2017-1-18T3:49:47Z</time></trkpt>
<trkpt lat="46.20167" lon="7.44921"><ele></ele><time>2017-1-18T3:49:50Z</time></trkpt>
<trkpt lat="46.20152" lon="7.44939"><ele></ele><time>2017-1-18T3:49:53Z</time></trkpt>
<trkpt lat="46.20141" lon="7.4496"><ele></ele><time>2017-1-18T3:49:56Z</time></trkpt>
<trkpt lat="46.20139" lon="7.44981"><ele></ele><time>2017-1-18T3:49:59Z</time></trkpt>
<trkpt lat="46.20137" lon="7.45011"><ele></ele><time>2017-1-18T3:50:2Z</time></trkpt>
<trkpt lat="46.20129" lon="7.45039"><ele></ele><time>2017-1-18T3:50:5Z</time></trkpt>
<trkpt lat="46.2012" lon="7.45062"><ele></ele><time>2017-1-18T3:50:8Z</time></trkpt>
<trkpt lat="46.20111" lon="7.4508"><ele></ele><time>2017-1-18T3:50:11Z</time></trkpt>
<trkpt lat="46.20103" lon="7.45093"><ele></ele><time>2017-1-18T3:50:14Z</time></trkpt>
<trkpt lat="46.20083" lon="7.45116"><ele></ele><time>2017-1-18T3:50:17Z</time></trkpt>
<trkpt lat="46.20071" lon="7.45135"><ele></ele><time>2017-1-18T3:50:20Z</time></trkpt>
<trkpt lat="46.20059" lon="7.45158"><ele></ele><time>2017-1-18T3:50:23Z</time></trkpt>
<trkpt lat="46.20054" lon="7.45169"><ele></ele><time>2017-1-18T3:50:26Z</time></trkpt>
<trkpt lat="46.20053" lon="7.45171"><ele></ele><time>2017-1-18T3:50:29Z</time></trkpt>
<trkpt lat="46.20052" lon="7.45175"><ele></ele><time>2017-1-18T3:50:32Z</time></trkpt>
<trkpt lat="46.2006" lon="7.45171"><ele></ele><time>2017-1-18T3:50:35Z</time></trkpt>
<trkpt lat="46.20076" lon="7.45162"><ele></ele><time>2017-1-18T3:50:38Z</time></trkpt>
<trkpt lat="46.20096" lon="7.45159"><ele></ele><time>2017-1-18T3:50:41Z</time></trkpt>
<trkpt lat="46.20115" lon="7.45155"><ele></ele><time>2017-1-18T3:50:44Z</time></trkpt>
<trkpt lat="46.20135" lon="7.45128"><ele></ele><time>2017-1-18T3:50:47Z</time></trkpt>
<trkpt lat="46.20142" lon="7.45105"><ele></ele><time>2017-1-18T3:50:50Z</time></trkpt>
<trkpt lat="46.20148" lon="7.4508"><ele></ele><time>2017-1-18T3:50:53Z</time></trkpt>
<trkpt lat="46.20152" lon="7.45054"><ele></ele><time>2017-1-18T3:50:56Z</time></trkpt>
<trkpt lat="46.2016" lon="7.45029"><ele></ele><time>2017-1-18T3:50:59Z</time></trkpt>
<trkpt lat="46.20176" lon="7.45002"><ele></ele><time>2017-1-18T3:51:2Z</time></trkpt>
<trkpt lat="46.20191" lon="7.44984"><ele></ele><time>2017-1-18T3:51:5Z</time></trkpt>
<trkpt lat="46.20208" lon="7.44974"><ele></ele><time>2017-1-18T3:51:8Z</time></trkpt>
<trkpt lat="46.20225" lon="7.44961"><ele></ele><time>2017-1-18T3:51:11Z</time></trkpt>
<trkpt lat="46.20243" lon="7.44966"><ele></ele><time>2017-1-18T3:51:14Z</time></trkpt>
<trkpt lat="46.20252" lon="7.44972"><ele></ele><time>2017-1-18T3:51:17Z</time></trkpt>
<trkpt lat="46.20265" lon="7.44993"><ele></ele><time>2017-1-18T3:51:20Z</time></trkpt>
<trkpt lat="46.20273" lon="7.45016"><ele></ele><time>2017-1-18T3:51:23Z</time></trkpt>
<trkpt lat="46.20281" lon="7.45042"><ele></ele><time>2017-1-18T3:51:26Z</time></trkpt>
<trkpt lat="46.20291" lon="7.45066"><ele></ele><time>2017-1-18T3:51:29Z</time></trkpt>
<trkpt lat="46.20308" lon="7.45095"><ele></ele><time>2017-1-18T3:51:32Z</time></trkpt>
<trkpt lat="46.20322" lon="7.45114"><ele></ele><time>2017-1-18T3:51:35Z</time></trkpt>
<trkpt lat="46.20328" lon="7.4514"><ele></ele><time>2017-1-18T3:51:38Z</time></trkpt>
<trkpt lat="46.20332" lon="7.45167"><ele></ele><time>2017-1-18T3:51:41Z</time></trkpt>
<trkpt lat="46.20339" lon="7.45189"><ele></ele><time>2017-1-18T3:51:44Z</time></trkpt>
<trkpt lat="46.20357" lon="7.45197"><ele></ele><time>2017-1-18T3:51:47Z</time></trkpt>
<trkpt lat="46.20371" lon="7.45211"><ele></ele><time>2017-1-18T3:51:50Z</time></trkpt>
<trkpt lat="46.20385" lon="7.45211"><ele></ele><time>2017-1-18T3:51:53Z</time></trkpt>
<trkpt lat="46.204" lon="7.45216"><ele></ele><time>2017-1-18T3:51:56Z</time></trkpt>
<trkpt lat="46.20415" lon="7.45231"><ele></ele><time>2017-1-18T3:51:59Z</time></trkpt>
<trkpt lat="46.2043" lon="7.45248"><ele></ele><time>2017-1-18T3:52:2Z</time></trkpt>
<trkpt lat="46.20443" lon="7.45267"><ele></ele><time>2017-1-18T3:52:5Z</time></trkpt>
<trkpt lat="46.20457" lon="7.45292"><ele></ele><time>2017-1-18T3:52:8Z</time></trkpt>
<trkpt lat="46.20471" lon="7.45307"><ele></ele><time>2017-1-18T3:52:11Z</time></trkpt>
<trkpt lat="46.20489" lon="7.45307"><ele></ele><time>2017-1-18T3:52:14Z</time></trkpt>
<trkpt lat="46.20509" lon="7.45301"><ele></ele><time>2017-1-18T3:52:17Z</time></trkpt>
<trkpt lat="46.20522" lon="7.45302"><ele></ele><time>2017-1-18T3:52:20Z</time></trkpt>
<trkpt lat="46.20529" lon="7.45302"><ele></ele><time>2017-1-18T3:52:23Z</time></trkpt>
<trkpt lat="46.20534" lon="7.45302"><ele></ele><time>2017-1-18T3:52:26Z</time></trkpt>
<trkpt lat="46.20552" lon="7.45304"><ele></ele><time>2017-1-18T3:52:29Z</time></trkpt>
<trkpt lat="46.20555" lon="7.45304"><ele></ele><time>2017-1-18T3:52:32Z</time></trkpt>
<trkpt lat="46.20557" lon="7.45305"><ele></ele><time>2017-1-18T3:52:35Z</time></trkpt>
<trkpt lat="46.2058" lon="7.45303"><ele></ele><time>2017-1-18T3:52:38Z</time></trkpt>
<trkpt lat="46.206" lon="7.45304"><ele></ele><time>2017-1-18T3:52:41Z</time></trkpt>
<trkpt lat="46.20619" lon="7.45299"><ele></ele><time>2017-1-18T3:52:44Z</time></trkpt>
<trkpt lat="46.20624" lon="7.45298"><ele></ele><time>2017-1-18T3:52:47Z</time></trkpt>
<trkpt lat="46.20627" lon="7.45298"><ele></ele><time>2017-1-18T3:52:50Z</time></trkpt>
<trkpt lat="46.20646" lon="7.45298"><ele></ele><time>2017-1-18T3:52:53Z</time></trkpt>
<trkpt lat="46.20665" lon="7.45302"><ele></ele><time>2017-1-18T3:52:56Z</time></trkpt>
<trkpt lat="46.20674" lon="7.45305"><ele></ele><time>2017-1-18T3:52:59Z</time></trkpt>
<trkpt lat="46.20693" lon="7.45308"><ele></ele><time>2017-1-18T3:53:2Z</time></trkpt>
<trkpt lat="46.20711" lon="7.45318"><ele></ele><time>2017-1-18T3:53:5Z</time></trkpt>
<trkpt lat="46.20719" lon="7.45322"><ele></ele><time>2017-1-18T3:53:8Z</time></trkpt>
<trkpt lat="46.20738" lon="7.45327"><ele></ele><time>2017-1-18T3:53:11Z</time></trkpt>
<trkpt lat="46.20757" lon="7.45331"><ele></ele><time>2017-1-18T3:53:14Z</time></trkpt>
<trkpt lat="46.20768" lon="7.45334"><ele></ele><time>2017-1-18T3:53:17Z</time></trkpt>
<trkpt lat="46.20783" lon="7.45348"><ele></ele><time>2017-1-18T3:53:20Z</time></trkpt>
<trkpt lat="46.20786" lon="7.45351"><ele></ele><time>2017-1-18T3:53:23Z</time></trkpt>
<trkpt lat="46.20794" lon="7.45377"><ele></ele><time>2017-1-18T3:53:26Z</time></trkpt>
<trkpt lat="46.20802" lon="7.45401"><ele></ele><time>2017-1-18T3:53:29Z</time></trkpt>
<trkpt lat="46.20803" lon="7.45403"><ele></ele><time>2017-1-18T3:53:32Z</time></trkpt>
<trkpt lat="46.20822" lon="7.45405"><ele></ele><time>2017-1-18T3:53:35Z</time></trkpt>
<trkpt lat="46.20841" lon="7.45399"><ele></ele><time>2017-1-18T3:53:38Z</time></trkpt>
<trkpt lat="46.20846" lon="7.45399"><ele></ele><time>2017-1-18T3:53:41Z</time></trkpt>
<trkpt lat="46.20853" lon="7.454"><ele></ele><time>2017-1-18T3:53:44Z</time></trkpt>
<trkpt lat="46.20864" lon="7.45402"><ele></ele><time>2017-1-18T3:53:47Z</time></trkpt>
<trkpt lat="46.20873" lon="7.45403"><ele></ele><time>2017-1-18T3:53:50Z</time></trkpt>
<trkpt lat="46.20875" lon="7.45403"><ele></ele><time>2017-1-18T3:53:53Z</time></trkpt>
<trkpt lat="46.20886" lon="7.45399"><ele></ele><time>2017-1-18T3:53:56Z</time></trkpt>
<trkpt lat="46.20897" lon="7.45392"><ele></ele><time>2017-1-18T3:53:59Z</time></trkpt>
<trkpt lat="46.20899" lon="7.45391"><ele></ele><time>2017-1-18T3:54:2Z</time></trkpt>
<trkpt lat="46.20917" lon="7.4538"><ele></ele><time>2017-1-18T3:54:5Z</time></trkpt>
<trkpt lat="46.20924" lon="7.45378"><ele></ele><time>2017-1-18T3:54:8Z</time></trkpt>
<trkpt lat="46.20945" lon="7.45377"><ele></ele><time>2017-1-18T3:54:11Z</time></trkpt>
<trkpt lat="46.20961" lon="7.45386"><ele></ele><time>2017-1-18T3:54:14Z</time></trkpt>
<trkpt lat="46.20977" lon="7.45404"><ele></ele><time>2017-1-18T3:54:17Z</time></trkpt>
<trkpt lat="46.20993" lon="7.45417"><ele></ele><time>2017-1-18T3:54:20Z</time></trkpt>
<trkpt lat="46.21012" lon="7.45418"><ele></ele><time>2017-1-18T3:54:23Z</time></trkpt>
<trkpt lat="46.21026" lon="7.45414"><ele></ele><time>2017-1-18T3:54:26Z</time></trkpt>
<trkpt lat="46.21041" lon="7.45411"><ele></ele><time>2017-1-18T3:54:29Z</time></trkpt>
<trkpt lat="46.21044" lon="7.4541"><ele></ele><time>2017-1-18T3:54:32Z</time></trkpt>
<trkpt lat="46.21064" lon="7.45408"><ele></ele><time>2017-1-18T3:54:35Z</time></trkpt>
<trkpt lat="46.21067" lon="7.45408"><ele></ele><time>2017-1-18T3:54:38Z</time></trkpt>
<trkpt lat="46.21086" lon="7.45404"><ele></ele><time>2017-1-18T3:54:41Z</time></trkpt>
<trkpt lat="46.21104" lon="7.45401"><ele></ele><time>2017-1-18T3:54:44Z</time></trkpt>
<trkpt lat="46.21118" lon="7.45403"><ele></ele><time>2017-1-18T3:54:47Z</time></trkpt>
<trkpt lat="46.21136" lon="7.4541"><ele></ele><time>2017-1-18T3:54:50Z</time></trkpt>
<trkpt lat="46.21155" lon="7.45414"><ele></ele><time>2017-1-18T3:54:53Z</time></trkpt>
<trkpt lat="46.21174" lon="7.45419"><ele></ele><time>2017-1-18T3:54:56Z</time></trkpt>
<trkpt lat="46.21195" lon="7.45425"><ele></ele><time>2017-1-18T3:54:59Z</time></trkpt>
<trkpt lat="46.21214" lon="7.45424"><ele></ele><time>2017-1-18T3:55:2Z</time></trkpt>
<trkpt lat="46.21224" lon="7.45423"><ele></ele><time>2017-1-18T3:55:5Z</time></trkpt>
<trkpt lat="46.21234" lon="7.45425"><ele></ele><time>2017-1-18T3:55:8Z</time></trkpt>
<trkpt lat="46.21237" lon="7.45427"><ele></ele><time>2017-1-18T3:55:11Z</time></trkpt>
<trkpt lat="46.21244" lon="7.45431"><ele></ele><time>2017-1-18T3:55:14Z</time></trkpt>
<trkpt lat="46.21261" lon="7.45446"><ele></ele><time>2017-1-18T3:55:17Z</time></trkpt>
<trkpt lat="46.21268" lon="7.45447"><ele></ele><time>2017-1-18T3:55:20Z</time></trkpt>
<trkpt lat="46.21296" lon="7.45438"><ele></ele><time>2017-1-18T3:55:23Z</time></trkpt>
<trkpt lat="46.21309" lon="7.45433"><ele></ele><time>2017-1-18T3:55:26Z</time></trkpt>
<trkpt lat="46.21328" lon="7.45431"><ele></ele><time>2017-1-18T3:55:29Z</time></trkpt>
<trkpt lat="46.21347" lon="7.45432"><ele></ele><time>2017-1-18T3:55:32Z</time></trkpt>
<trkpt lat="46.21356" lon="7.45427"><ele></ele><time>2017-1-18T3:55:35Z</time></trkpt>
<trkpt lat="46.21372" lon="7.4541"><ele></ele><time>2017-1-18T3:55:38Z</time></trkpt>
<trkpt lat="46.21391" lon="7.45406"><ele></ele><time>2017-1-18T3:55:41Z</time></trkpt>
<trkpt lat="46.2141" lon="7.45411"><ele></ele><time>2017-1-18T3:55:44Z</time></trkpt>
<trkpt lat="46.21428" lon="7.45416"><ele></ele><time>2017-1-18T3:55:47Z</time></trkpt>
<trkpt lat="46.21442" lon="7.45417"><ele></ele><time>2017-1-18T3:55:50Z</time></trkpt>
<trkpt lat="46.21462" lon="7.4542"><ele></ele><time>2017-1-18T3:55:53Z</time></trkpt>
<trkpt lat="46.2148" lon="7.45427"><ele></ele><time>2017-1-18T3:55:56Z</time></trkpt>
<trkpt lat="46.21497" lon="7.45439"><ele></ele><time>2017-1-18T3:55:59Z</time></trkpt>
<trkpt lat="46.21511" lon="7.45456"><ele></ele><time>2017-1-18T3:56:2Z</time></trkpt>
<trkpt lat="46.21526" lon="7.45473"><ele></ele><time>2017-1-18T3:56:5Z</time></trkpt>
<trkpt lat="46.21539" lon="7.45491"><ele></ele><time>2017-1-18T3:56:8Z</time></trkpt>
<trkpt lat="46.21547" lon="7.45504"><ele></ele><time>2017-1-18T3:56:11Z</time></trkpt>
<trkpt lat="46.2157" lon="7.45509"><ele></ele><time>2017-1-18T3:56:14Z</time></trkpt>
<trkpt lat="46.21589" lon="7.45503"><ele></ele><time>2017-1-18T3:56:17Z</time></trkpt>
<trkpt lat="46.21607" lon="7.45507"><ele></ele><time>2017-1-18T3:56:20Z</time></trkpt>
<trkpt lat="46.2161" lon="7.45508"><ele></ele><time>2017-1-18T3:56:23Z</time></trkpt>
<trkpt lat="46.21626" lon="7.45522"><ele></ele><time>2017-1-18T3:56:26Z</time></trkpt>
<trkpt lat="46.21627" lon="7.45527"><ele></ele><time>2017-1-18T3:56:29Z</time></trkpt>
<trkpt lat="46.21626" lon="7.45534"><ele></ele><time>2017-1-18T3:56:32Z</time></trkpt>
<trkpt lat="46.21627" lon="7.45537"><ele></ele><time>2017-1-18T3:56:35Z</time></trkpt>
<trkpt lat="46.21628" lon="7.45537"><ele></ele><time>2017-1-18T3:56:38Z</time></trkpt>
<trkpt lat="46.21628" lon="7.45536"><ele></ele><time>2017-1-18T3:56:41Z</time></trkpt>
<trkpt lat="46.21628" lon="7.45536"><ele></ele><time>2017-1-18T3:56:44Z</time></trkpt>
<trkpt lat="46.21628" lon="7.45536"><ele></ele><time>2017-1-18T3:56:47Z</time></trkpt>
<trkpt lat="46.21628" lon="7.45536"><ele></ele><time>2017-1-18T3:56:50Z</time></trkpt>
<trkpt lat="46.21629" lon="7.45536"><ele></ele><time>2017-1-18T3:56:53Z</time></trkpt>
<trkpt lat="46.21628" lon="7.45536"><ele></ele><time>2017-1-18T3:56:56Z</time></trkpt>
<trkpt lat="46.21628" lon="7.45536"><ele></ele><time>2017-1-18T3:56:59Z</time></trkpt>
<trkpt lat="46.21627" lon="7.45536"><ele></ele><time>2017-1-18T3:57:2Z</time></trkpt>
<trkpt lat="46.21627" lon="7.45537"><ele></ele><time>2017-1-18T3:57:5Z</time></trkpt>
<trkpt lat="46.21627" lon="7.45536"><ele></ele><time>2017-1-18T3:57:8Z</time></trkpt>
<trkpt lat="46.21628" lon="7.45536"><ele></ele><time>2017-1-18T3:57:11Z</time></trkpt>
<trkpt lat="46.21625" lon="7.4554"><ele></ele><time>2017-1-18T3:57:14Z</time></trkpt>
<trkpt lat="46.21623" lon="7.45539"><ele></ele><time>2017-1-18T3:57:17Z</time></trkpt>
<trkpt lat="46.21623" lon="7.45538"><ele></ele><time>2017-1-18T3:57:20Z</time></trkpt>
<trkpt lat="46.21624" lon="7.45538"><ele></ele><time>2017-1-18T3:57:23Z</time></trkpt>
<trkpt lat="46.21623" lon="7.45537"><ele></ele><time>2017-1-18T3:57:26Z</time></trkpt>
<trkpt lat="46.21623" lon="7.45538"><ele></ele><time>2017-1-18T3:57:29Z</time></trkpt>
<trkpt lat="46.21623" lon="7.45538"><ele></ele><time>2017-1-18T3:57:32Z</time></trkpt>
<trkpt lat="46.21623" lon="7.45538"><ele></ele><time>2017-1-18T3:57:35Z</time></trkpt>
<trkpt lat="46.21627" lon="7.45528"><ele></ele><time>2017-1-18T3:57:38Z</time></trkpt>
<trkpt lat="46.21626" lon="7.45519"><ele></ele><time>2017-1-18T3:57:41Z</time></trkpt>
<trkpt lat="46.21609" lon="7.45508"><ele></ele><time>2017-1-18T3:57:44Z</time></trkpt>
<trkpt lat="46.21588" lon="7.45502"><ele></ele><time>2017-1-18T3:57:47Z</time></trkpt>
<trkpt lat="46.21584" lon="7.45502"><ele></ele><time>2017-1-18T3:57:50Z</time></trkpt>
<trkpt lat="46.21563" lon="7.4551"><ele></ele><time>2017-1-18T3:57:53Z</time></trkpt>
<trkpt lat="46.21542" lon="7.45498"><ele></ele><time>2017-1-18T3:57:56Z</time></trkpt>
<trkpt lat="46.21535" lon="7.45485"><ele></ele><time>2017-1-18T3:57:59Z</time></trkpt>
<trkpt lat="46.21531" lon="7.45479"><ele></ele><time>2017-1-18T3:58:2Z</time></trkpt>
<trkpt lat="46.21516" lon="7.45461"><ele></ele><time>2017-1-18T3:58:5Z</time></trkpt>
<trkpt lat="46.215" lon="7.45442"><ele></ele><time>2017-1-18T3:58:8Z</time></trkpt>
<trkpt lat="46.21495" lon="7.45437"><ele></ele><time>2017-1-18T3:58:11Z</time></trkpt>
<trkpt lat="46.21476" lon="7.45426"><ele></ele><time>2017-1-18T3:58:14Z</time></trkpt>
<trkpt lat="46.21469" lon="7.45424"><ele></ele><time>2017-1-18T3:58:17Z</time></trkpt>
<trkpt lat="46.21447" lon="7.45418"><ele></ele><time>2017-1-18T3:58:20Z</time></trkpt>
<trkpt lat="46.21424" lon="7.45415"><ele></ele><time>2017-1-18T3:58:23Z</time></trkpt>
<trkpt lat="46.21401" lon="7.45408"><ele></ele><time>2017-1-18T3:58:26Z</time></trkpt>
<trkpt lat="46.21387" lon="7.45406"><ele></ele><time>2017-1-18T3:58:29Z</time></trkpt>
<trkpt lat="46.21369" lon="7.45413"><ele></ele><time>2017-1-18T3:58:32Z</time></trkpt>
<trkpt lat="46.21358" lon="7.45423"><ele></ele><time>2017-1-18T3:58:35Z</time></trkpt>
<trkpt lat="46.21352" lon="7.45427"><ele></ele><time>2017-1-18T3:58:38Z</time></trkpt>
<trkpt lat="46.21332" lon="7.45431"><ele></ele><time>2017-1-18T3:58:41Z</time></trkpt>
<trkpt lat="46.21325" lon="7.4543"><ele></ele><time>2017-1-18T3:58:44Z</time></trkpt>
<trkpt lat="46.21318" lon="7.4543"><ele></ele><time>2017-1-18T3:58:47Z</time></trkpt>
<trkpt lat="46.21297" lon="7.45437"><ele></ele><time>2017-1-18T3:58:50Z</time></trkpt>
<trkpt lat="46.21291" lon="7.4544"><ele></ele><time>2017-1-18T3:58:53Z</time></trkpt>
<trkpt lat="46.21272" lon="7.45448"><ele></ele><time>2017-1-18T3:58:56Z</time></trkpt>
<trkpt lat="46.21254" lon="7.45444"><ele></ele><time>2017-1-18T3:58:59Z</time></trkpt>
<trkpt lat="46.21242" lon="7.45432"><ele></ele><time>2017-1-18T3:59:2Z</time></trkpt>
<trkpt lat="46.21235" lon="7.45426"><ele></ele><time>2017-1-18T3:59:5Z</time></trkpt>
<trkpt lat="46.21229" lon="7.45422"><ele></ele><time>2017-1-18T3:59:8Z</time></trkpt>
<trkpt lat="46.21211" lon="7.45424"><ele></ele><time>2017-1-18T3:59:11Z</time></trkpt>
<trkpt lat="46.21191" lon="7.45425"><ele></ele><time>2017-1-18T3:59:14Z</time></trkpt>
<trkpt lat="46.21169" lon="7.45418"><ele></ele><time>2017-1-18T3:59:17Z</time></trkpt>
<trkpt lat="46.2115" lon="7.45414"><ele></ele><time>2017-1-18T3:59:20Z</time></trkpt>
<trkpt lat="46.21144" lon="7.45413"><ele></ele><time>2017-1-18T3:59:23Z</time></trkpt>
<trkpt lat="46.21125" lon="7.45407"><ele></ele><time>2017-1-18T3:59:26Z</time></trkpt>
<trkpt lat="46.21106" lon="7.45402"><ele></ele><time>2017-1-18T3:59:29Z</time></trkpt>
<trkpt lat="46.21087" lon="7.45404"><ele></ele><time>2017-1-18T3:59:32Z</time></trkpt>
<trkpt lat="46.21081" lon="7.45406"><ele></ele><time>2017-1-18T3:59:35Z</time></trkpt>
<trkpt lat="46.21062" lon="7.45409"><ele></ele><time>2017-1-18T3:59:38Z</time></trkpt>
<trkpt lat="46.21043" lon="7.45411"><ele></ele><time>2017-1-18T3:59:41Z</time></trkpt>
<trkpt lat="46.21024" lon="7.45415"><ele></ele><time>2017-1-18T3:59:44Z</time></trkpt>
<trkpt lat="46.21005" lon="7.45419"><ele></ele><time>2017-1-18T3:59:47Z</time></trkpt>
<trkpt lat="46.20986" lon="7.45416"><ele></ele><time>2017-1-18T3:59:50Z</time></trkpt>
<trkpt lat="46.2097" lon="7.45402"><ele></ele><time>2017-1-18T3:59:53Z</time></trkpt>
<trkpt lat="46.20965" lon="7.45396"><ele></ele><time>2017-1-18T3:59:56Z</time></trkpt>
<trkpt lat="46.20959" lon="7.45391"><ele></ele><time>2017-1-18T3:59:59Z</time></trkpt>
<trkpt lat="46.20943" lon="7.45383"><ele></ele><time>2017-1-18T4:0:2Z</time></trkpt>
<trkpt lat="46.20919" lon="7.45383"><ele></ele><time>2017-1-18T4:0:5Z</time></trkpt>
<trkpt lat="46.20913" lon="7.45386"><ele></ele><time>2017-1-18T4:0:8Z</time></trkpt>
<trkpt lat="46.20901" lon="7.45394"><ele></ele><time>2017-1-18T4:0:11Z</time></trkpt>
<trkpt lat="46.20883" lon="7.45405"><ele></ele><time>2017-1-18T4:0:14Z</time></trkpt>
<trkpt lat="46.20863" lon="7.45406"><ele></ele><time>2017-1-18T4:0:17Z</time></trkpt>
<trkpt lat="46.2085" lon="7.45402"><ele></ele><time>2017-1-18T4:0:20Z</time></trkpt>
<trkpt lat="46.20843" lon="7.454"><ele></ele><time>2017-1-18T4:0:23Z</time></trkpt>
<trkpt lat="46.20824" lon="7.45403"><ele></ele><time>2017-1-18T4:0:26Z</time></trkpt>
<trkpt lat="46.20806" lon="7.45405"><ele></ele><time>2017-1-18T4:0:29Z</time></trkpt>
<trkpt lat="46.20792" lon="7.45383"><ele></ele><time>2017-1-18T4:0:32Z</time></trkpt>
<trkpt lat="46.20791" lon="7.45375"><ele></ele><time>2017-1-18T4:0:35Z</time></trkpt>
<trkpt lat="46.20789" lon="7.45367"><ele></ele><time>2017-1-18T4:0:38Z</time></trkpt>
<trkpt lat="46.20773" lon="7.45348"><ele></ele><time>2017-1-18T4:0:41Z</time></trkpt>
<trkpt lat="46.20762" lon="7.45343"><ele></ele><time>2017-1-18T4:0:44Z</time></trkpt>
<trkpt lat="46.20744" lon="7.45338"><ele></ele><time>2017-1-18T4:0:47Z</time></trkpt>
<trkpt lat="46.20725" lon="7.45333"><ele></ele><time>2017-1-18T4:0:50Z</time></trkpt>
<trkpt lat="46.20708" lon="7.45325"><ele></ele><time>2017-1-18T4:0:53Z</time></trkpt>
<trkpt lat="46.20692" lon="7.45315"><ele></ele><time>2017-1-18T4:0:56Z</time></trkpt>
<trkpt lat="46.20674" lon="7.45312"><ele></ele><time>2017-1-18T4:0:59Z</time></trkpt>
<trkpt lat="46.20654" lon="7.45311"><ele></ele><time>2017-1-18T4:1:2Z</time></trkpt>
<trkpt lat="46.20641" lon="7.45309"><ele></ele><time>2017-1-18T4:1:5Z</time></trkpt>
<trkpt lat="46.20622" lon="7.45313"><ele></ele><time>2017-1-18T4:1:8Z</time></trkpt>
<trkpt lat="46.20615" lon="7.45316"><ele></ele><time>2017-1-18T4:1:11Z</time></trkpt>
<trkpt lat="46.20601" lon="7.45318"><ele></ele><time>2017-1-18T4:1:14Z</time></trkpt>
<trkpt lat="46.2058" lon="7.45316"><ele></ele><time>2017-1-18T4:1:17Z</time></trkpt>
<trkpt lat="46.20573" lon="7.45314"><ele></ele><time>2017-1-18T4:1:20Z</time></trkpt>
<trkpt lat="46.20553" lon="7.4531"><ele></ele><time>2017-1-18T4:1:23Z</time></trkpt>
<trkpt lat="46.20534" lon="7.45306"><ele></ele><time>2017-1-18T4:1:26Z</time></trkpt>
<trkpt lat="46.20516" lon="7.45303"><ele></ele><time>2017-1-18T4:1:29Z</time></trkpt>
<trkpt lat="46.20503" lon="7.45305"><ele></ele><time>2017-1-18T4:1:32Z</time></trkpt>
<trkpt lat="46.20484" lon="7.4531"><ele></ele><time>2017-1-18T4:1:35Z</time></trkpt>
<trkpt lat="46.20479" lon="7.4531"><ele></ele><time>2017-1-18T4:1:38Z</time></trkpt>
<trkpt lat="46.20461" lon="7.45301"><ele></ele><time>2017-1-18T4:1:41Z</time></trkpt>
<trkpt lat="46.20448" lon="7.4528"><ele></ele><time>2017-1-18T4:1:44Z</time></trkpt>
<trkpt lat="46.20444" lon="7.45272"><ele></ele><time>2017-1-18T4:1:47Z</time></trkpt>
<trkpt lat="46.20429" lon="7.45253"><ele></ele><time>2017-1-18T4:1:50Z</time></trkpt>
<trkpt lat="46.20416" lon="7.45236"><ele></ele><time>2017-1-18T4:1:53Z</time></trkpt>
<trkpt lat="46.20412" lon="7.45231"><ele></ele><time>2017-1-18T4:1:56Z</time></trkpt>
<trkpt lat="46.20391" lon="7.45221"><ele></ele><time>2017-1-18T4:1:59Z</time></trkpt>
<trkpt lat="46.20385" lon="7.45221"><ele></ele><time>2017-1-18T4:2:2Z</time></trkpt>
<trkpt lat="46.20369" lon="7.45207"><ele></ele><time>2017-1-18T4:2:5Z</time></trkpt>
<trkpt lat="46.20381" lon="7.45192"><ele></ele><time>2017-1-18T4:2:8Z</time></trkpt>
<trkpt lat="46.20404" lon="7.45191"><ele></ele><time>2017-1-18T4:2:11Z</time></trkpt>
<trkpt lat="46.20425" lon="7.45185"><ele></ele><time>2017-1-18T4:2:14Z</time></trkpt>
<trkpt lat="46.20432" lon="7.45183"><ele></ele><time>2017-1-18T4:2:17Z</time></trkpt>
<trkpt lat="46.20454" lon="7.45181"><ele></ele><time>2017-1-18T4:2:20Z</time></trkpt>
<trkpt lat="46.20475" lon="7.45176"><ele></ele><time>2017-1-18T4:2:23Z</time></trkpt>
<trkpt lat="46.20482" lon="7.45175"><ele></ele><time>2017-1-18T4:2:26Z</time></trkpt>
<trkpt lat="46.20489" lon="7.45175"><ele></ele><time>2017-1-18T4:2:29Z</time></trkpt>
<trkpt lat="46.20507" lon="7.45178"><ele></ele><time>2017-1-18T4:2:32Z</time></trkpt>
<trkpt lat="46.20527" lon="7.45183"><ele></ele><time>2017-1-18T4:2:35Z</time></trkpt>
<trkpt lat="46.20535" lon="7.45184"><ele></ele><time>2017-1-18T4:2:38Z</time></trkpt>
<trkpt lat="46.20556" lon="7.45185"><ele></ele><time>2017-1-18T4:2:41Z</time></trkpt>
<trkpt lat="46.20575" lon="7.4519"><ele></ele><time>2017-1-18T4:2:44Z</time></trkpt>
<trkpt lat="46.20582" lon="7.45191"><ele></ele><time>2017-1-18T4:2:47Z</time></trkpt>
<trkpt lat="46.20603" lon="7.45192"><ele></ele><time>2017-1-18T4:2:50Z</time></trkpt>
<trkpt lat="46.20625" lon="7.45187"><ele></ele><time>2017-1-18T4:2:53Z</time></trkpt>
<trkpt lat="46.20647" lon="7.45176"><ele></ele><time>2017-1-18T4:2:56Z</time></trkpt>
<trkpt lat="46.20668" lon="7.45162"><ele></ele><time>2017-1-18T4:2:59Z</time></trkpt>
<trkpt lat="46.20686" lon="7.45152"><ele></ele><time>2017-1-18T4:3:2Z</time></trkpt>
<trkpt lat="46.20705" lon="7.45148"><ele></ele><time>2017-1-18T4:3:5Z</time></trkpt>
<trkpt lat="46.20725" lon="7.45144"><ele></ele><time>2017-1-18T4:3:8Z</time></trkpt>
<trkpt lat="46.20743" lon="7.45141"><ele></ele><time>2017-1-18T4:3:11Z</time></trkpt>
<trkpt lat="46.20763" lon="7.45139"><ele></ele><time>2017-1-18T4:3:14Z</time></trkpt>
<trkpt lat="46.20785" lon="7.45139"><ele></ele><time>2017-1-18T4:3:17Z</time></trkpt>
<trkpt lat="46.20805" lon="7.45141"><ele></ele><time>2017-1-18T4:3:20Z</time></trkpt>
<trkpt lat="46.20818" lon="7.45145"><ele></ele><time>2017-1-18T4:3:23Z</time></trkpt>
<trkpt lat="46.20825" lon="7.45146"><ele></ele><time>2017-1-18T4:3:26Z</time></trkpt>
<trkpt lat="46.20846" lon="7.45145"><ele></ele><time>2017-1-18T4:3:29Z</time></trkpt>
<trkpt lat="46.20868" lon="7.45141"><ele></ele><time>2017-1-18T4:3:32Z</time></trkpt>
<trkpt lat="46.20889" lon="7.4514"><ele></ele><time>2017-1-18T4:3:35Z</time></trkpt>
<trkpt lat="46.2091" lon="7.45139"><ele></ele><time>2017-1-18T4:3:38Z</time></trkpt>
<trkpt lat="46.20933" lon="7.45136"><ele></ele><time>2017-1-18T4:3:41Z</time></trkpt>
<trkpt lat="46.20955" lon="7.45134"><ele></ele><time>2017-1-18T4:3:44Z</time></trkpt>
<trkpt lat="46.20976" lon="7.45131"><ele></ele><time>2017-1-18T4:3:47Z</time></trkpt>
<trkpt lat="46.20995" lon="7.45125"><ele></ele><time>2017-1-18T4:3:50Z</time></trkpt>
<trkpt lat="46.21015" lon="7.45116"><ele></ele><time>2017-1-18T4:3:53Z</time></trkpt>
<trkpt lat="46.21022" lon="7.45112"><ele></ele><time>2017-1-18T4:3:56Z</time></trkpt>
<trkpt lat="46.21036" lon="7.45105"><ele></ele><time>2017-1-18T4:3:59Z</time></trkpt>
<trkpt lat="46.21055" lon="7.45091"><ele></ele><time>2017-1-18T4:4:2Z</time></trkpt>
<trkpt lat="46.21073" lon="7.45077"><ele></ele><time>2017-1-18T4:4:5Z</time></trkpt>
<trkpt lat="46.21089" lon="7.45064"><ele></ele><time>2017-1-18T4:4:8Z</time></trkpt>
<trkpt lat="46.21106" lon="7.45053"><ele></ele><time>2017-1-18T4:4:11Z</time></trkpt>
<trkpt lat="46.21126" lon="7.45039"><ele></ele><time>2017-1-18T4:4:14Z</time></trkpt>
<trkpt lat="46.21146" lon="7.45021"><ele></ele><time>2017-1-18T4:4:17Z</time></trkpt>
<trkpt lat="46.21163" lon="7.45006"><ele></ele><time>2017-1-18T4:4:20Z</time></trkpt>
<trkpt lat="46.21182" lon="7.44994"><ele></ele><time>2017-1-18T4:4:23Z</time></trkpt>
<trkpt lat="46.21203" lon="7.44982"><ele></ele><time>2017-1-18T4:4:26Z</time></trkpt>
<trkpt lat="46.21222" lon="7.44969"><ele></ele><time>2017-1-18T4:4:29Z</time></trkpt>
<trkpt lat="46.21234" lon="7.44961"><ele></ele><time>2017-1-18T4:4:32Z</time></trkpt>
<trkpt lat="46.21245" lon="7.44949"><ele></ele><time>2017-1-18T4:4:35Z</time></trkpt>
<trkpt lat="46.2126" lon="7.44927"><ele></ele><time>2017-1-18T4:4:38Z</time></trkpt>
<trkpt lat="46.21265" lon="7.4492"><ele></ele><time>2017-1-18T4:4:41Z</time></trkpt>
<trkpt lat="46.21281" lon="7.44902"><ele></ele><time>2017-1-18T4:4:44Z</time></trkpt>
<trkpt lat="46.21297" lon="7.44885"><ele></ele><time>2017-1-18T4:4:47Z</time></trkpt>
<trkpt lat="46.21309" lon="7.44869"><ele></ele><time>2017-1-18T4:4:50Z</time></trkpt>
<trkpt lat="46.21316" lon="7.44854"><ele></ele><time>2017-1-18T4:4:53Z</time></trkpt>
<trkpt lat="46.2132" lon="7.4484"><ele></ele><time>2017-1-18T4:4:56Z</time></trkpt>
<trkpt lat="46.21328" lon="7.44822"><ele></ele><time>2017-1-18T4:4:59Z</time></trkpt>
<trkpt lat="46.21346" lon="7.44802"><ele></ele><time>2017-1-18T4:5:2Z</time></trkpt>
<trkpt lat="46.21364" lon="7.44788"><ele></ele><time>2017-1-18T4:5:5Z</time></trkpt>
<trkpt lat="46.21382" lon="7.44772"><ele></ele><time>2017-1-18T4:5:8Z</time></trkpt>
<trkpt lat="46.21399" lon="7.4475"><ele></ele><time>2017-1-18T4:5:11Z</time></trkpt>
<trkpt lat="46.21416" lon="7.44728"><ele></ele><time>2017-1-18T4:5:14Z</time></trkpt>
<trkpt lat="46.21434" lon="7.44704"><ele></ele><time>2017-1-18T4:5:17Z</time></trkpt>
<trkpt lat="46.21453" lon="7.4468"><ele></ele><time>2017-1-18T4:5:20Z</time></trkpt>
<trkpt lat="46.21459" lon="7.44672"><ele></ele><time>2017-1-18T4:5:23Z</time></trkpt>
<trkpt lat="46.21464" lon="7.44662"><ele></ele><time>2017-1-18T4:5:26Z</time></trkpt>
<trkpt lat="46.21476" lon="7.44629"><ele></ele><time>2017-1-18T4:5:29Z</time></trkpt>
<trkpt lat="46.21479" lon="7.44617"><ele></ele><time>2017-1-18T4:5:32Z</time></trkpt>
<trkpt lat="46.21483" lon="7.44591"><ele></ele><time>2017-1-18T4:5:35Z</time></trkpt>
<trkpt lat="46.21492" lon="7.44555"><ele></ele><time>2017-1-18T4:5:38Z</time></trkpt>
<trkpt lat="46.21503" lon="7.4452"><ele></ele><time>2017-1-18T4:5:41Z</time></trkpt>
<trkpt lat="46.21511" lon="7.44496"><ele></ele><time>2017-1-18T4:5:44Z</time></trkpt>
<trkpt lat="46.21517" lon="7.44471"><ele></ele><time>2017-1-18T4:5:47Z</time></trkpt>
<trkpt lat="46.21522" lon="7.44445"><ele></ele><time>2017-1-18T4:5:50Z</time></trkpt>
<trkpt lat="46.21526" lon="7.44419"><ele></ele><time>2017-1-18T4:5:53Z</time></trkpt>
<trkpt lat="46.21531" lon="7.44393"><ele></ele><time>2017-1-18T4:5:56Z</time></trkpt>
<trkpt lat="46.21533" lon="7.4438"><ele></ele><time>2017-1-18T4:5:59Z</time></trkpt>
<trkpt lat="46.21534" lon="7.44368"><ele></ele><time>2017-1-18T4:6:2Z</time></trkpt>
<trkpt lat="46.2154" lon="7.44335"><ele></ele><time>2017-1-18T4:6:5Z</time></trkpt>
<trkpt lat="46.21543" lon="7.44326"><ele></ele><time>2017-1-18T4:6:8Z</time></trkpt>
<trkpt lat="46.21557" lon="7.44307"><ele></ele><time>2017-1-18T4:6:11Z</time></trkpt>
<trkpt lat="46.21576" lon="7.44298"><ele></ele><time>2017-1-18T4:6:14Z</time></trkpt>
<trkpt lat="46.21594" lon="7.44281"><ele></ele><time>2017-1-18T4:6:17Z</time></trkpt>
<trkpt lat="46.21573" lon="7.44276"><ele></ele><time>2017-1-18T4:6:20Z</time></trkpt>
<trkpt lat="46.21561" lon="7.44281"><ele></ele><time>2017-1-18T4:6:23Z</time></trkpt>
<trkpt lat="46.21555" lon="7.44284"><ele></ele><time>2017-1-18T4:6:26Z</time></trkpt>
<trkpt lat="46.21543" lon="7.44292"><ele></ele><time>2017-1-18T4:6:29Z</time></trkpt>
<trkpt lat="46.21525" lon="7.44312"><ele></ele><time>2017-1-18T4:6:32Z</time></trkpt>
<trkpt lat="46.21516" lon="7.4433"><ele></ele><time>2017-1-18T4:6:35Z</time></trkpt>
<trkpt lat="46.215" lon="7.44362"><ele></ele><time>2017-1-18T4:6:38Z</time></trkpt>
<trkpt lat="46.21479" lon="7.44382"><ele></ele><time>2017-1-18T4:6:41Z</time></trkpt>
<trkpt lat="46.21464" lon="7.44389"><ele></ele><time>2017-1-18T4:6:44Z</time></trkpt>
<trkpt lat="46.21442" lon="7.44398"><ele></ele><time>2017-1-18T4:6:47Z</time></trkpt>
<trkpt lat="46.21423" lon="7.44418"><ele></ele><time>2017-1-18T4:6:50Z</time></trkpt>
<trkpt lat="46.2141" lon="7.44448"><ele></ele><time>2017-1-18T4:6:53Z</time></trkpt>
<trkpt lat="46.21406" lon="7.44457"><ele></ele><time>2017-1-18T4:6:56Z</time></trkpt>
<trkpt lat="46.21396" lon="7.44485"><ele></ele><time>2017-1-18T4:6:59Z</time></trkpt>
<trkpt lat="46.21392" lon="7.44494"><ele></ele><time>2017-1-18T4:7:2Z</time></trkpt>
<trkpt lat="46.21375" lon="7.44516"><ele></ele><time>2017-1-18T4:7:5Z</time></trkpt>
<trkpt lat="46.21354" lon="7.4453"><ele></ele><time>2017-1-18T4:7:8Z</time></trkpt>
<trkpt lat="46.2133" lon="7.44532"><ele></ele><time>2017-1-18T4:7:11Z</time></trkpt>
<trkpt lat="46.21308" lon="7.44532"><ele></ele><time>2017-1-18T4:7:14Z</time></trkpt>
<trkpt lat="46.21287" lon="7.44536"><ele></ele><time>2017-1-18T4:7:17Z</time></trkpt>
<trkpt lat="46.21268" lon="7.44542"><ele></ele><time>2017-1-18T4:7:20Z</time></trkpt>
<trkpt lat="46.21249" lon="7.44547"><ele></ele><time>2017-1-18T4:7:23Z</time></trkpt>
<trkpt lat="46.2123" lon="7.44543"><ele></ele><time>2017-1-18T4:7:26Z</time></trkpt>
<trkpt lat="46.21219" lon="7.44535"><ele></ele><time>2017-1-18T4:7:29Z</time></trkpt>
<trkpt lat="46.21201" lon="7.44522"><ele></ele><time>2017-1-18T4:7:32Z</time></trkpt>
<trkpt lat="46.21179" lon="7.44514"><ele></ele><time>2017-1-18T4:7:35Z</time></trkpt>
<trkpt lat="46.21172" lon="7.44512"><ele></ele><time>2017-1-18T4:7:38Z</time></trkpt>
<trkpt lat="46.21148" lon="7.44514"><ele></ele><time>2017-1-18T4:7:41Z</time></trkpt>
<trkpt lat="46.21131" lon="7.44517"><ele></ele><time>2017-1-18T4:7:44Z</time></trkpt>
<trkpt lat="46.21105" lon="7.44524"><ele></ele><time>2017-1-18T4:7:47Z</time></trkpt>
<trkpt lat="46.2108" lon="7.44534"><ele></ele><time>2017-1-18T4:7:50Z</time></trkpt>
<trkpt lat="46.21063" lon="7.44544"><ele></ele><time>2017-1-18T4:7:53Z</time></trkpt>
<trkpt lat="46.21047" lon="7.44554"><ele></ele><time>2017-1-18T4:7:56Z</time></trkpt>
<trkpt lat="46.2103" lon="7.44563"><ele></ele><time>2017-1-18T4:7:59Z</time></trkpt>
<trkpt lat="46.21012" lon="7.44571"><ele></ele><time>2017-1-18T4:8:2Z</time></trkpt>
<trkpt lat="46.20995" lon="7.44579"><ele></ele><time>2017-1-18T4:8:5Z</time></trkpt>
<trkpt lat="46.20977" lon="7.44588"><ele></ele><time>2017-1-18T4:8:8Z</time></trkpt>
<trkpt lat="46.20953" lon="7.446"><ele></ele><time>2017-1-18T4:8:11Z</time></trkpt>
<trkpt lat="46.20929" lon="7.44611"><ele></ele><time>2017-1-18T4:8:14Z</time></trkpt>
<trkpt lat="46.20907" lon="7.44607"><ele></ele><time>2017-1-18T4:8:17Z</time></trkpt>
<trkpt lat="46.20894" lon="7.44598"><ele></ele><time>2017-1-18T4:8:20Z</time></trkpt>
<trkpt lat="46.20874" lon="7.44585"><ele></ele><time>2017-1-18T4:8:23Z</time></trkpt>
<trkpt lat="46.20855" lon="7.44571"><ele></ele><time>2017-1-18T4:8:26Z</time></trkpt>
<trkpt lat="46.20832" lon="7.44556"><ele></ele><time>2017-1-18T4:8:29Z</time></trkpt>
<trkpt lat="46.20809" lon="7.44538"><ele></ele><time>2017-1-18T4:8:32Z</time></trkpt>
<trkpt lat="46.20793" lon="7.44526"><ele></ele><time>2017-1-18T4:8:35Z</time></trkpt>
<trkpt lat="46.20769" lon="7.44511"><ele></ele><time>2017-1-18T4:8:38Z</time></trkpt>
<trkpt lat="46.20762" lon="7.44504"><ele></ele><time>2017-1-18T4:8:41Z</time></trkpt>
<trkpt lat="46.20746" lon="7.4449"><ele></ele><time>2017-1-18T4:8:44Z</time></trkpt>
<trkpt lat="46.20733" lon="7.44471"><ele></ele><time>2017-1-18T4:8:47Z</time></trkpt>
<trkpt lat="46.20727" lon="7.44461"><ele></ele><time>2017-1-18T4:8:50Z</time></trkpt>
<trkpt lat="46.20722" lon="7.44451"><ele></ele><time>2017-1-18T4:8:53Z</time></trkpt>
<trkpt lat="46.20708" lon="7.44421"><ele></ele><time>2017-1-18T4:8:56Z</time></trkpt>
<trkpt lat="46.20703" lon="7.44412"><ele></ele><time>2017-1-18T4:8:59Z</time></trkpt>
<trkpt lat="46.2069" lon="7.44394"><ele></ele><time>2017-1-18T4:9:2Z</time></trkpt>
<trkpt lat="46.2067" lon="7.44372"><ele></ele><time>2017-1-18T4:9:5Z</time></trkpt>
<trkpt lat="46.20647" lon="7.44355"><ele></ele><time>2017-1-18T4:9:8Z</time></trkpt>
<trkpt lat="46.20626" lon="7.44342"><ele></ele><time>2017-1-18T4:9:11Z</time></trkpt>
<trkpt lat="46.20607" lon="7.44321"><ele></ele><time>2017-1-18T4:9:14Z</time></trkpt>
<trkpt lat="46.20602" lon="7.44312"><ele></ele><time>2017-1-18T4:9:17Z</time></trkpt>
<trkpt lat="46.20587" lon="7.44281"><ele></ele><time>2017-1-18T4:9:20Z</time></trkpt>
<trkpt lat="46.2058" lon="7.44246"><ele></ele><time>2017-1-18T4:9:23Z</time></trkpt>
<trkpt lat="46.20578" lon="7.44209"><ele></ele><time>2017-1-18T4:9:26Z</time></trkpt>
<trkpt lat="46.20576" lon="7.44182"><ele></ele><time>2017-1-18T4:9:29Z</time></trkpt>
<trkpt lat="46.20572" lon="7.44157"><ele></ele><time>2017-1-18T4:9:32Z</time></trkpt>
<trkpt lat="46.20569" lon="7.44144"><ele></ele><time>2017-1-18T4:9:35Z</time></trkpt>
<trkpt lat="46.20558" lon="7.44111"><ele></ele><time>2017-1-18T4:9:38Z</time></trkpt>
<trkpt lat="46.2054" lon="7.44082"><ele></ele><time>2017-1-18T4:9:41Z</time></trkpt>
<trkpt lat="46.20533" lon="7.44073"><ele></ele><time>2017-1-18T4:9:44Z</time></trkpt>
<trkpt lat="46.20518" lon="7.44056"><ele></ele><time>2017-1-18T4:9:47Z</time></trkpt>
<trkpt lat="46.20503" lon="7.4404"><ele></ele><time>2017-1-18T4:9:50Z</time></trkpt>
<trkpt lat="46.20486" lon="7.44025"><ele></ele><time>2017-1-18T4:9:53Z</time></trkpt>
<trkpt lat="46.20471" lon="7.4401"><ele></ele><time>2017-1-18T4:9:56Z</time></trkpt>
<trkpt lat="46.20465" lon="7.44003"><ele></ele><time>2017-1-18T4:9:59Z</time></trkpt>
<trkpt lat="46.20447" lon="7.43984"><ele></ele><time>2017-1-18T4:10:2Z</time></trkpt>
<trkpt lat="46.20442" lon="7.43978"><ele></ele><time>2017-1-18T4:10:5Z</time></trkpt>
<trkpt lat="46.20442" lon="7.43955"><ele></ele><time>2017-1-18T4:10:8Z</time></trkpt>
<trkpt lat="46.20454" lon="7.43962"><ele></ele><time>2017-1-18T4:10:11Z</time></trkpt>
<trkpt lat="46.20457" lon="7.43965"><ele></ele><time>2017-1-18T4:10:14Z</time></trkpt>
<trkpt lat="46.20466" lon="7.43972"><ele></ele><time>2017-1-18T4:10:17Z</time></trkpt>
<trkpt lat="46.20477" lon="7.4398"><ele></ele><time>2017-1-18T4:10:20Z</time></trkpt>
<trkpt lat="46.20491" lon="7.43987"><ele></ele><time>2017-1-18T4:10:23Z</time></trkpt>
<trkpt lat="46.2051" lon="7.43998"><ele></ele><time>2017-1-18T4:10:26Z</time></trkpt>
<trkpt lat="46.20513" lon="7.44"><ele></ele><time>2017-1-18T4:10:29Z</time></trkpt>
<trkpt lat="46.20541" lon="7.44021"><ele></ele><time>2017-1-18T4:10:32Z</time></trkpt>
<trkpt lat="46.2056" lon="7.44031"><ele></ele><time>2017-1-18T4:10:35Z</time></trkpt>
<trkpt lat="46.20562" lon="7.44033"><ele></ele><time>2017-1-18T4:10:38Z</time></trkpt>
<trkpt lat="46.20569" lon="7.44034"><ele></ele><time>2017-1-18T4:10:41Z</time></trkpt>
<trkpt lat="46.2057" lon="7.44034"><ele></ele><time>2017-1-18T4:10:44Z</time></trkpt>
<trkpt lat="46.20568" lon="7.44009"><ele></ele><time>2017-1-18T4:10:47Z</time></trkpt>
<trkpt lat="46.20561" lon="7.43988"><ele></ele><time>2017-1-18T4:10:50Z</time></trkpt>
<trkpt lat="46.2056" lon="7.43983"><ele></ele><time>2017-1-18T4:10:53Z</time></trkpt>
<trkpt lat="46.20565" lon="7.43974"><ele></ele><time>2017-1-18T4:10:56Z</time></trkpt>
<trkpt lat="46.20566" lon="7.43973"><ele></ele><time>2017-1-18T4:10:59Z</time></trkpt>
<trkpt lat="46.20572" lon="7.43966"><ele></ele><time>2017-1-18T4:11:2Z</time></trkpt>
<trkpt lat="46.20572" lon="7.43966"><ele></ele><time>2017-1-18T4:11:5Z</time></trkpt>
<trkpt lat="46.20592" lon="7.43957"><ele></ele><time>2017-1-18T4:11:8Z</time></trkpt>
<trkpt lat="46.20603" lon="7.43955"><ele></ele><time>2017-1-18T4:11:11Z</time></trkpt>
<trkpt lat="46.20609" lon="7.43955"><ele></ele><time>2017-1-18T4:11:14Z</time></trkpt>
<trkpt lat="46.20619" lon="7.43955"><ele></ele><time>2017-1-18T4:11:17Z</time></trkpt>
<trkpt lat="46.20632" lon="7.43955"><ele></ele><time>2017-1-18T4:11:20Z</time></trkpt>
<trkpt lat="46.20636" lon="7.43958"><ele></ele><time>2017-1-18T4:11:23Z</time></trkpt>
<trkpt lat="46.20641" lon="7.43961"><ele></ele><time>2017-1-18T4:11:26Z</time></trkpt>
<trkpt lat="46.20643" lon="7.43962"><ele></ele><time>2017-1-18T4:11:29Z</time></trkpt>
<trkpt lat="46.2066" lon="7.43972"><ele></ele><time>2017-1-18T4:11:32Z</time></trkpt>
<trkpt lat="46.20664" lon="7.43973"><ele></ele><time>2017-1-18T4:11:35Z</time></trkpt>
<trkpt lat="46.20668" lon="7.43962"><ele></ele><time>2017-1-18T4:11:38Z</time></trkpt>
<trkpt lat="46.20669" lon="7.43965"><ele></ele><time>2017-1-18T4:11:41Z</time></trkpt>
</trkseg></trk></gpx>